sensor_id;sensor_type;location;lat;lon;timestamp;pressure;altitude;pressure_sealevel;temperature;humidity
59274;BME280;45044;41.572;24.730;2023-02-21T00:02:24;91693.25;;;0.30;100.00
59274;BME280;45044;41.572;24.730;2023-02-21T00:05:09;91683.44;;;0.09;100.00
59274;BME280;45044;41.572;24.730;2023-02-21T00:07:55;91686.16;;;-0.28;100.00
59274;BME280;45044;41.572;24.730;2023-02-21T00:10:40;91676.75;;;0.08;100.00
59274;BME280;45044;41.572;24.730;2023-02-21T00:13:25;91670.97;;;0.11;100.00
59274;BME280;45044;41.572;24.730;2023-02-21T00:16:15;91667.81;;;-0.17;100.00
59274;BME280;45044;41.572;24.730;2023-02-21T00:19:01;91663.63;;;-0.04;100.00
59274;BME280;45044;41.572;24.730;2023-02-21T00:21:46;91657.75;;;-0.51;100.00
59274;BME280;45044;41.572;24.730;2023-02-21T00:24:31;91650.97;;;-0.15;100.00
59274;BME280;45044;41.572;24.730;2023-02-21T00:27:16;91644.69;;;-0.22;100.00
59274;BME280;45044;41.572;24.730;2023-02-21T00:30:02;91648.41;;;-0.38;100.00
59274;BME280;45044;41.572;24.730;2023-02-21T00:32:47;91639.81;;;-0.24;100.00
59274;BME280;45044;41.572;24.730;2023-02-21T00:35:33;91639.78;;;-0.33;100.00
59274;BME280;45044;41.572;24.730;2023-02-21T00:38:18;91637.69;;;-0.22;100.00
59274;BME280;45044;41.572;24.730;2023-02-21T00:41:04;91649.25;;;-0.74;100.00
59274;BME280;45044;41.572;24.730;2023-02-21T00:43:49;91645.34;;;-0.40;100.00
59274;BME280;45044;41.572;24.730;2023-02-21T00:46:34;91649.50;;;-0.30;100.00
59274;BME280;45044;41.572;24.730;2023-02-21T00:49:20;91647.16;;;-0.08;100.00
59274;BME280;45044;41.572;24.730;2023-02-21T00:52:05;91636.06;;;-0.09;100.00
59274;BME280;45044;41.572;24.730;2023-02-21T00:54:50;91650.81;;;-0.09;100.00
59274;BME280;45044;41.572;24.730;2023-02-21T00:57:36;91636.44;;;-0.33;100.00
59274;BME280;45044;41.572;24.730;2023-02-21T01:00:22;91635.31;;;-0.41;100.00
59274;BME280;45044;41.572;24.730;2023-02-21T01:03:08;91632.69;;;-0.50;100.00
59274;BME280;45044;41.572;24.730;2023-02-21T01:05:54;91620.31;;;-0.30;100.00
59274;BME280;45044;41.572;24.730;2023-02-21T01:08:44;91618.53;;;-0.21;100.00
59274;BME280;45044;41.572;24.730;2023-02-21T01:11:30;91609.88;;;-0.16;100.00
59274;BME280;45044;41.572;24.730;2023-02-21T01:14:15;91615.81;;;-0.16;100.00
59274;BME280;45044;41.572;24.730;2023-02-21T01:17:01;91611.03;;;-0.63;100.00
59274;BME280;45044;41.572;24.730;2023-02-21T01:19:47;91613.53;;;-0.49;100.00
59274;BME280;45044;41.572;24.730;2023-02-21T01:22:32;91594.06;;;-0.55;100.00
59274;BME280;45044;41.572;24.730;2023-02-21T01:25:17;91604.00;;;-0.40;100.00
59274;BME280;45044;41.572;24.730;2023-02-21T01:28:02;91594.06;;;-0.55;100.00
59274;BME280;45044;41.572;24.730;2023-02-21T01:30:48;91590.22;;;-0.35;100.00
59274;BME280;45044;41.572;24.730;2023-02-21T01:33:38;91580.25;;;-0.51;100.00
59274;BME280;45044;41.572;24.730;2023-02-21T01:36:24;91585.25;;;-0.54;100.00
59274;BME280;45044;41.572;24.730;2023-02-21T01:39:10;91576.03;;;-0.78;100.00
59274;BME280;45044;41.572;24.730;2023-02-21T01:41:56;91565.19;;;-0.57;100.00
59274;BME280;45044;41.572;24.730;2023-02-21T01:44:43;91582.81;;;-0.59;100.00
59274;BME280;45044;41.572;24.730;2023-02-21T01:47:29;91570.97;;;-0.61;100.00
59274;BME280;45044;41.572;24.730;2023-02-21T01:50:21;91569.50;;;-0.76;100.00
59274;BME280;45044;41.572;24.730;2023-02-21T01:53:14;91577.19;;;-0.53;100.00
59274;BME280;45044;41.572;24.730;2023-02-21T01:56:00;91561.88;;;-0.49;100.00
59274;BME280;45044;41.572;24.730;2023-02-21T01:58:48;91562.81;;;-0.45;100.00
59274;BME280;45044;41.572;24.730;2023-02-21T02:01:40;91547.16;;;-0.49;100.00
59274;BME280;45044;41.572;24.730;2023-02-21T02:04:26;91543.44;;;-0.65;100.00
59274;BME280;45044;41.572;24.730;2023-02-21T02:07:11;91543.94;;;-0.86;100.00
59274;BME280;45044;41.572;24.730;2023-02-21T02:09:56;91508.84;;;-1.19;100.00
59274;BME280;45044;41.572;24.730;2023-02-21T02:18:34;91530.19;;;-0.73;100.00
59274;BME280;45044;41.572;24.730;2023-02-21T02:21:24;91524.06;;;-0.86;100.00
59274;BME280;45044;41.572;24.730;2023-02-21T02:43:30;91508.13;;;-0.79;100.00
59274;BME280;45044;41.572;24.730;2023-02-21T02:48:37;91513.47;;;-0.75;100.00
59274;BME280;45044;41.572;24.730;2023-02-21T02:51:08;91516.22;;;-0.71;100.00
59274;BME280;45044;41.572;24.730;2023-02-21T02:53:37;91520.91;;;-0.74;100.00
59274;BME280;45044;41.572;24.730;2023-02-21T02:56:09;91518.09;;;-0.54;100.00
59274;BME280;45044;41.572;24.730;2023-02-21T02:58:40;91497.75;;;-0.47;100.00
59274;BME280;45044;41.572;24.730;2023-02-21T03:10:27;91510.03;;;-0.62;100.00
59274;BME280;45044;41.572;24.730;2023-02-21T03:20:41;91504.78;;;-0.47;100.00
59274;BME280;45044;41.572;24.730;2023-02-21T03:23:12;91514.66;;;-0.81;100.00
59274;BME280;45044;41.572;24.730;2023-02-21T03:25:40;91512.03;;;-0.58;100.00
59274;BME280;45044;41.572;24.730;2023-02-21T03:28:08;91503.84;;;-0.52;100.00
59274;BME280;45044;41.572;24.730;2023-02-21T03:30:35;91507.16;;;-0.92;100.00
59274;BME280;45044;41.572;24.730;2023-02-21T03:33:01;91503.00;;;-0.70;100.00
59274;BME280;45044;41.572;24.730;2023-02-21T03:35:29;91495.59;;;-0.63;100.00
59274;BME280;45044;41.572;24.730;2023-02-21T03:37:57;91502.06;;;-0.33;100.00
59274;BME280;45044;41.572;24.730;2023-02-21T03:40:33;91504.19;;;-0.76;100.00
59274;BME280;45044;41.572;24.730;2023-02-21T03:43:01;91509.06;;;-0.75;100.00
59274;BME280;45044;41.572;24.730;2023-02-21T03:45:28;91504.47;;;-0.46;100.00
59274;BME280;45044;41.572;24.730;2023-02-21T03:47:54;91509.31;;;-0.53;100.00
59274;BME280;45044;41.572;24.730;2023-02-21T03:50:21;91513.97;;;-0.96;100.00
59274;BME280;45044;41.572;24.730;2023-02-21T03:52:48;91510.41;;;-0.77;100.00
59274;BME280;45044;41.572;24.730;2023-02-21T03:55:15;91511.69;;;-0.66;100.00
59274;BME280;45044;41.572;24.730;2023-02-21T03:57:42;91499.31;;;-0.46;100.00
59274;BME280;45044;41.572;24.730;2023-02-21T04:00:09;91498.22;;;-0.45;100.00
59274;BME280;45044;41.572;24.730;2023-02-21T04:02:36;91494.31;;;-0.42;100.00
59274;BME280;45044;41.572;24.730;2023-02-21T04:05:04;91493.38;;;-0.38;100.00
59274;BME280;45044;41.572;24.730;2023-02-21T04:07:30;91497.09;;;-0.62;100.00
59274;BME280;45044;41.572;24.730;2023-02-21T04:09:57;91502.13;;;-0.97;100.00
59274;BME280;45044;41.572;24.730;2023-02-21T04:12:24;91512.50;;;-0.88;100.00
59274;BME280;45044;41.572;24.730;2023-02-21T04:14:51;91500.16;;;-0.59;100.00
59274;BME280;45044;41.572;24.730;2023-02-21T04:17:18;91502.59;;;-0.54;100.00
59274;BME280;45044;41.572;24.730;2023-02-21T04:19:44;91490.66;;;-0.41;100.00
59274;BME280;45044;41.572;24.730;2023-02-21T04:22:12;91485.94;;;-0.39;100.00
59274;BME280;45044;41.572;24.730;2023-02-21T04:24:39;91495.41;;;-0.75;100.00
59274;BME280;45044;41.572;24.730;2023-02-21T04:27:05;91488.59;;;-0.71;100.00
59274;BME280;45044;41.572;24.730;2023-02-21T04:29:33;91488.66;;;-0.53;100.00
59274;BME280;45044;41.572;24.730;2023-02-21T04:32:00;91493.19;;;-0.50;100.00
59274;BME280;45044;41.572;24.730;2023-02-21T04:34:28;91491.09;;;-0.48;100.00
59274;BME280;45044;41.572;24.730;2023-02-21T04:36:55;91482.22;;;-0.65;100.00
59274;BME280;45044;41.572;24.730;2023-02-21T04:39:22;91496.66;;;-0.95;100.00
59274;BME280;45044;41.572;24.730;2023-02-21T04:41:49;91483.00;;;-0.96;100.00
59274;BME280;45044;41.572;24.730;2023-02-21T04:44:15;91474.75;;;-0.75;100.00
59274;BME280;45044;41.572;24.730;2023-02-21T04:46:43;91474.66;;;-0.52;100.00
59274;BME280;45044;41.572;24.730;2023-02-21T04:49:14;91469.00;;;-0.63;100.00
59274;BME280;45044;41.572;24.730;2023-02-21T04:51:41;91474.06;;;-0.49;100.00
59274;BME280;45044;41.572;24.730;2023-02-21T04:54:07;91477.97;;;-0.61;100.00
59274;BME280;45044;41.572;24.730;2023-02-21T04:56:34;91478.84;;;-0.74;100.00
59274;BME280;45044;41.572;24.730;2023-02-21T04:59:03;91487.41;;;-0.97;100.00
59274;BME280;45044;41.572;24.730;2023-02-21T05:01:30;91481.06;;;-1.22;100.00
59274;BME280;45044;41.572;24.730;2023-02-21T05:03:58;91482.91;;;-1.14;100.00
59274;BME280;45044;41.572;24.730;2023-02-21T05:06:26;91486.44;;;-1.10;100.00
59274;BME280;45044;41.572;24.730;2023-02-21T05:08:53;91493.94;;;-0.90;100.00
59274;BME280;45044;41.572;24.730;2023-02-21T05:11:21;91488.66;;;-0.85;100.00
59274;BME280;45044;41.572;24.730;2023-02-21T05:13:48;91486.19;;;-0.58;100.00
59274;BME280;45044;41.572;24.730;2023-02-21T05:16:15;91484.41;;;-0.90;100.00
59274;BME280;45044;41.572;24.730;2023-02-21T05:18:44;91488.59;;;-0.71;100.00
59274;BME280;45044;41.572;24.730;2023-02-21T05:21:11;91488.59;;;-1.03;100.00
59274;BME280;45044;41.572;24.730;2023-02-21T05:23:39;91492.75;;;-1.16;100.00
59274;BME280;45044;41.572;24.730;2023-02-21T05:26:09;91494.78;;;-0.72;100.00
59274;BME280;45044;41.572;24.730;2023-02-21T05:28:38;91497.56;;;-0.59;100.00
59274;BME280;45044;41.572;24.730;2023-02-21T05:31:05;91505.22;;;-0.45;100.00
59274;BME280;45044;41.572;24.730;2023-02-21T05:33:32;91514.34;;;-0.48;100.00
59274;BME280;45044;41.572;24.730;2023-02-21T05:35:59;91513.34;;;-0.29;100.00
59274;BME280;45044;41.572;24.730;2023-02-21T05:38:26;91513.19;;;-0.24;100.00
59274;BME280;45044;41.572;24.730;2023-02-21T05:40:53;91507.28;;;-0.16;100.00
59274;BME280;45044;41.572;24.730;2023-02-21T05:43:20;91522.34;;;-0.09;100.00
59274;BME280;45044;41.572;24.730;2023-02-21T05:45:47;91522.16;;;-0.13;100.00
59274;BME280;45044;41.572;24.730;2023-02-21T05:48:13;91515.69;;;0.08;100.00
59274;BME280;45044;41.572;24.730;2023-02-21T05:50:40;91519.78;;;0.00;100.00
59274;BME280;45044;41.572;24.730;2023-02-21T05:53:07;91520.72;;;0.22;100.00
59274;BME280;45044;41.572;24.730;2023-02-21T05:55:36;91523.16;;;0.27;100.00
59274;BME280;45044;41.572;24.730;2023-02-21T05:58:03;91518.00;;;0.45;100.00
59274;BME280;45044;41.572;24.730;2023-02-21T06:00:30;91520.28;;;0.55;100.00
59274;BME280;45044;41.572;24.730;2023-02-21T06:02:57;91521.97;;;0.69;100.00
59274;BME280;45044;41.572;24.730;2023-02-21T06:05:25;91512.94;;;0.84;100.00
59274;BME280;45044;41.572;24.730;2023-02-21T06:07:52;91523.16;;;0.63;100.00
59274;BME280;45044;41.572;24.730;2023-02-21T06:10:20;91526.19;;;0.29;100.00
59274;BME280;45044;41.572;24.730;2023-02-21T06:12:47;91521.03;;;0.47;100.00
59274;BME280;45044;41.572;24.730;2023-02-21T06:15:13;91520.25;;;0.73;100.00
59274;BME280;45044;41.572;24.730;2023-02-21T06:17:41;91516.47;;;0.79;100.00
59274;BME280;45044;41.572;24.730;2023-02-21T06:20:13;91524.97;;;0.89;100.00
59274;BME280;45044;41.572;24.730;2023-02-21T06:22:40;91530.41;;;1.14;100.00
59274;BME280;45044;41.572;24.730;2023-02-21T06:25:07;91528.06;;;1.39;100.00
59274;BME280;45044;41.572;24.730;2023-02-21T06:27:34;91524.78;;;1.60;100.00
59274;BME280;45044;41.572;24.730;2023-02-21T06:30:03;91520.78;;;1.23;100.00
59274;BME280;45044;41.572;24.730;2023-02-21T06:32:30;91529.00;;;1.34;100.00
59274;BME280;45044;41.572;24.730;2023-02-21T06:34:57;91526.75;;;1.93;100.00
59274;BME280;45044;41.572;24.730;2023-02-21T06:37:23;91532.53;;;2.50;100.00
59274;BME280;45044;41.572;24.730;2023-02-21T06:39:50;91522.19;;;4.56;100.00
59274;BME280;45044;41.572;24.730;2023-02-21T06:42:17;91524.56;;;6.32;93.40
59274;BME280;45044;41.572;24.730;2023-02-21T06:44:45;91532.63;;;7.89;74.42
59274;BME280;45044;41.572;24.730;2023-02-21T06:47:13;91523.91;;;7.14;75.87
59274;BME280;45044;41.572;24.730;2023-02-21T06:49:40;91532.16;;;6.05;81.10
59274;BME280;45044;41.572;24.730;2023-02-21T06:52:07;91527.88;;;5.80;90.75
59274;BME280;45044;41.572;24.730;2023-02-21T06:54:35;91526.59;;;7.61;75.23
59274;BME280;45044;41.572;24.730;2023-02-21T06:57:02;91529.13;;;8.05;69.28
59274;BME280;45044;41.572;24.730;2023-02-21T06:59:29;91525.41;;;7.59;70.63
59274;BME280;45044;41.572;24.730;2023-02-21T07:01:56;91520.84;;;6.89;75.39
59274;BME280;45044;41.572;24.730;2023-02-21T07:04:24;91511.31;;;6.41;78.80
59274;BME280;45044;41.572;24.730;2023-02-21T07:06:51;91526.38;;;5.47;88.13
59274;BME280;45044;41.572;24.730;2023-02-21T07:09:18;91519.72;;;5.05;97.58
59274;BME280;45044;41.572;24.730;2023-02-21T07:11:45;91517.28;;;5.73;96.65
59274;BME280;45044;41.572;24.730;2023-02-21T07:14:12;91521.09;;;6.64;84.12
59274;BME280;45044;41.572;24.730;2023-02-21T07:16:39;91524.53;;;6.68;80.66
59274;BME280;45044;41.572;24.730;2023-02-21T07:19:06;91518.97;;;6.69;79.76
59274;BME280;45044;41.572;24.730;2023-02-21T07:21:33;91511.88;;;8.85;67.75
59274;BME280;45044;41.572;24.730;2023-02-21T07:23:59;91511.00;;;11.44;57.82
59274;BME280;45044;41.572;24.730;2023-02-21T07:26:27;91503.94;;;13.37;54.01
59274;BME280;45044;41.572;24.730;2023-02-21T07:28:54;91505.53;;;14.76;45.25
59274;BME280;45044;41.572;24.730;2023-02-21T07:31:21;91497.84;;;15.79;45.00
59274;BME280;45044;41.572;24.730;2023-02-21T07:33:48;91492.00;;;15.64;42.89
59274;BME280;45044;41.572;24.730;2023-02-21T07:36:15;91501.94;;;14.55;43.25
59274;BME280;45044;41.572;24.730;2023-02-21T07:38:42;91490.41;;;17.07;40.84
59274;BME280;45044;41.572;24.730;2023-02-21T07:41:09;91490.34;;;16.70;38.97
59274;BME280;45044;41.572;24.730;2023-02-21T07:43:36;91501.78;;;15.95;42.57
59274;BME280;45044;41.572;24.730;2023-02-21T07:46:12;91506.81;;;14.99;43.50
59274;BME280;45044;41.572;24.730;2023-02-21T07:48:39;91488.56;;;16.43;42.35
59274;BME280;45044;41.572;24.730;2023-02-21T07:51:07;91492.28;;;18.34;38.82
59274;BME280;45044;41.572;24.730;2023-02-21T07:53:34;91481.03;;;17.59;38.83
59274;BME280;45044;41.572;24.730;2023-02-21T07:56:02;91484.56;;;19.42;35.66
59274;BME280;45044;41.572;24.730;2023-02-21T07:58:29;91485.19;;;19.03;36.19
59274;BME280;45044;41.572;24.730;2023-02-21T08:00:57;91480.13;;;17.29;37.95
59274;BME280;45044;41.572;24.730;2023-02-21T08:03:24;91475.25;;;19.21;36.06
59274;BME280;45044;41.572;24.730;2023-02-21T08:05:51;91474.44;;;19.76;34.39
59274;BME280;45044;41.572;24.730;2023-02-21T08:08:18;91479.31;;;20.04;32.38
59274;BME280;45044;41.572;24.730;2023-02-21T08:10:44;91468.03;;;21.06;31.86
59274;BME280;45044;41.572;24.730;2023-02-21T08:13:11;91471.44;;;21.70;30.20
59274;BME280;45044;41.572;24.730;2023-02-21T08:15:38;91469.31;;;21.87;31.67
59274;BME280;45044;41.572;24.730;2023-02-21T08:18:05;91462.88;;;21.75;31.22
59274;BME280;45044;41.572;24.730;2023-02-21T08:20:31;91458.38;;;22.23;30.55
59274;BME280;45044;41.572;24.730;2023-02-21T08:22:58;91469.94;;;20.12;32.45
59274;BME280;45044;41.572;24.730;2023-02-21T08:25:25;91467.59;;;17.83;35.69
59274;BME280;45044;41.572;24.730;2023-02-21T08:27:52;91454.91;;;19.79;34.19
59274;BME280;45044;41.572;24.730;2023-02-21T08:30:21;91453.47;;;21.29;32.61
59274;BME280;45044;41.572;24.730;2023-02-21T08:32:48;91458.88;;;19.06;34.24
59274;BME280;45044;41.572;24.730;2023-02-21T08:35:18;91451.53;;;20.85;32.80
59274;BME280;45044;41.572;24.730;2023-02-21T08:37:49;91448.88;;;22.22;31.17
59274;BME280;45044;41.572;24.730;2023-02-21T08:40:19;91437.91;;;22.67;29.56
59274;BME280;45044;41.572;24.730;2023-02-21T08:42:51;91435.16;;;20.74;31.93
59274;BME280;45044;41.572;24.730;2023-02-21T08:45:19;91437.59;;;22.65;30.76
59274;BME280;45044;41.572;24.730;2023-02-21T08:47:47;91431.06;;;23.90;28.96
59274;BME280;45044;41.572;24.730;2023-02-21T08:50:14;91424.69;;;21.34;30.83
59274;BME280;45044;41.572;24.730;2023-02-21T08:52:41;91408.56;;;20.48;31.49
59274;BME280;45044;41.572;24.730;2023-02-21T08:55:08;91417.06;;;22.24;30.36
59274;BME280;45044;41.572;24.730;2023-02-21T08:57:35;91414.41;;;22.43;30.09
59274;BME280;45044;41.572;24.730;2023-02-21T09:00:03;91411.69;;;22.24;30.01
59274;BME280;45044;41.572;24.730;2023-02-21T09:02:31;91407.41;;;22.64;30.36
59274;BME280;45044;41.572;24.730;2023-02-21T09:04:58;91411.66;;;21.86;30.75
59274;BME280;45044;41.572;24.730;2023-02-21T09:07:25;91407.81;;;22.91;30.28
59274;BME280;45044;41.572;24.730;2023-02-21T09:09:54;91407.19;;;21.93;31.05
59274;BME280;45044;41.572;24.730;2023-02-21T09:12:20;91405.75;;;22.85;30.15
59274;BME280;45044;41.572;24.730;2023-02-21T09:14:47;91405.91;;;22.35;30.87
59274;BME280;45044;41.572;24.730;2023-02-21T09:17:15;91395.63;;;21.54;31.28
59274;BME280;45044;41.572;24.730;2023-02-21T09:19:42;91397.28;;;22.31;30.86
59274;BME280;45044;41.572;24.730;2023-02-21T09:22:10;91395.50;;;23.46;30.33
59274;BME280;45044;41.572;24.730;2023-02-21T09:24:37;91389.97;;;22.03;30.54
59274;BME280;45044;41.572;24.730;2023-02-21T09:27:05;91382.06;;;21.99;30.02
59274;BME280;45044;41.572;24.730;2023-02-21T09:29:34;91386.19;;;23.56;28.88
59274;BME280;45044;41.572;24.730;2023-02-21T09:32:11;91376.28;;;23.72;29.27
59274;BME280;45044;41.572;24.730;2023-02-21T09:34:38;91372.38;;;22.96;29.55
59274;BME280;45044;41.572;24.730;2023-02-21T09:37:05;91367.31;;;22.98;29.09
59274;BME280;45044;41.572;24.730;2023-02-21T09:39:32;91371.00;;;23.10;28.96
59274;BME280;45044;41.572;24.730;2023-02-21T09:41:59;91364.09;;;22.66;28.98
59274;BME280;45044;41.572;24.730;2023-02-21T09:44:27;91368.75;;;23.08;28.90
59274;BME280;45044;41.572;24.730;2023-02-21T09:46:58;91357.00;;;24.47;27.46
59274;BME280;45044;41.572;24.730;2023-02-21T09:49:32;91347.66;;;24.43;27.54
59274;BME280;45044;41.572;24.730;2023-02-21T09:52:01;91346.16;;;23.00;26.41
59274;BME280;45044;41.572;24.730;2023-02-21T09:54:36;91341.56;;;23.35;25.62
59274;BME280;45044;41.572;24.730;2023-02-21T09:57:08;91344.25;;;22.91;28.66
59274;BME280;45044;41.572;24.730;2023-02-21T09:59:36;91339.72;;;23.07;28.72
59274;BME280;45044;41.572;24.730;2023-02-21T10:10:18;91319.56;;;22.87;27.47
59274;BME280;45044;41.572;24.730;2023-02-21T10:18:33;91292.91;;;23.61;26.09
59274;BME280;45044;41.572;24.730;2023-02-21T10:21:02;91293.53;;;24.35;26.22
59274;BME280;45044;41.572;24.730;2023-02-21T10:23:40;91287.91;;;24.48;26.71
59274;BME280;45044;41.572;24.730;2023-02-21T10:26:12;91301.25;;;24.42;26.03
59274;BME280;45044;41.572;24.730;2023-02-21T10:28:39;91275.03;;;24.37;24.96
59274;BME280;45044;41.572;24.730;2023-02-21T10:31:36;91280.19;;;23.86;25.02
59274;BME280;45044;41.572;24.730;2023-02-21T10:34:08;91269.47;;;23.86;23.05
59274;BME280;45044;41.572;24.730;2023-02-21T10:36:40;91260.56;;;24.64;25.09
59274;BME280;45044;41.572;24.730;2023-02-21T10:39:20;91259.09;;;23.78;23.07
59274;BME280;45044;41.572;24.730;2023-02-21T10:41:48;91247.28;;;24.91;24.58
59274;BME280;45044;41.572;24.730;2023-02-21T10:44:24;91241.16;;;24.00;23.39
59274;BME280;45044;41.572;24.730;2023-02-21T10:47:10;91243.78;;;25.21;24.29
59274;BME280;45044;41.572;24.730;2023-02-21T10:49:55;91248.31;;;24.18;24.14
59274;BME280;45044;41.572;24.730;2023-02-21T10:52:25;91234.69;;;23.91;21.17
59274;BME280;45044;41.572;24.730;2023-02-21T10:55:13;91233.22;;;25.17;22.77
59274;BME280;45044;41.572;24.730;2023-02-21T10:57:58;91231.53;;;25.35;21.94
59274;BME280;45044;41.572;24.730;2023-02-21T11:05:38;91212.47;;;26.28;21.02
59274;BME280;45044;41.572;24.730;2023-02-21T11:08:07;91215.75;;;26.70;21.07
59274;BME280;45044;41.572;24.730;2023-02-21T11:10:40;91209.59;;;25.63;20.53
59274;BME280;45044;41.572;24.730;2023-02-21T11:13:20;91207.22;;;25.50;20.92
59274;BME280;45044;41.572;24.730;2023-02-21T11:16:06;91200.06;;;24.69;21.30
59274;BME280;45044;41.572;24.730;2023-02-21T11:18:33;91193.38;;;25.57;21.60
59274;BME280;45044;41.572;24.730;2023-02-21T11:21:11;91187.16;;;26.19;21.37
59274;BME280;45044;41.572;24.730;2023-02-21T11:23:55;91176.66;;;25.47;20.65
59274;BME280;45044;41.572;24.730;2023-02-21T11:26:24;91172.47;;;25.94;21.44
59274;BME280;45044;41.572;24.730;2023-02-21T11:28:51;91180.06;;;25.69;19.96
59274;BME280;45044;41.572;24.730;2023-02-21T11:31:28;91174.75;;;26.28;20.99
59274;BME280;45044;41.572;24.730;2023-02-21T11:33:59;91168.47;;;26.10;20.95
59274;BME280;45044;41.572;24.730;2023-02-21T11:36:49;91159.91;;;25.85;21.39
59274;BME280;45044;41.572;24.730;2023-02-21T11:39:31;91161.97;;;26.93;21.19
59274;BME280;45044;41.572;24.730;2023-02-21T11:42:00;91154.53;;;26.38;20.31
59274;BME280;45044;41.572;24.730;2023-02-21T11:44:35;91151.84;;;26.76;20.91
59274;BME280;45044;41.572;24.730;2023-02-21T11:47:26;91147.50;;;26.52;21.37
59274;BME280;45044;41.572;24.730;2023-02-21T11:50:03;91147.56;;;27.02;20.93
59274;BME280;45044;41.572;24.730;2023-02-21T11:52:48;91140.25;;;27.08;20.99
59274;BME280;45044;41.572;24.730;2023-02-21T11:55:22;91140.03;;;27.96;20.59
59274;BME280;45044;41.572;24.730;2023-02-21T12:01:03;91136.16;;;28.43;20.19
59274;BME280;45044;41.572;24.730;2023-02-21T12:03:54;91129.91;;;27.68;19.15
59274;BME280;45044;41.572;24.730;2023-02-21T12:06:45;91119.69;;;28.52;20.00
59274;BME280;45044;41.572;24.730;2023-02-21T12:12:11;91118.72;;;28.15;19.90
59274;BME280;45044;41.572;24.730;2023-02-21T12:17:50;91108.09;;;26.55;19.12
59274;BME280;45044;41.572;24.730;2023-02-21T12:20:31;91098.78;;;27.78;19.98
59274;BME280;45044;41.572;24.730;2023-02-21T12:32:15;91088.16;;;26.41;21.64
59274;BME280;45044;41.572;24.730;2023-02-21T12:37:50;91085.16;;;23.77;23.24
59274;BME280;45044;41.572;24.730;2023-02-21T12:46:00;91090.38;;;24.32;25.18
59274;BME280;45044;41.572;24.730;2023-02-21T12:48:32;91091.78;;;23.51;25.54
59274;BME280;45044;41.572;24.730;2023-02-21T12:51:08;91100.31;;;22.18;26.71
59274;BME280;45044;41.572;24.730;2023-02-21T12:54:00;91090.09;;;20.98;27.71
59274;BME280;45044;41.572;24.730;2023-02-21T12:59:12;91095.16;;;21.14;29.20
59274;BME280;45044;41.572;24.730;2023-02-21T13:01:52;91093.28;;;19.82;29.41
59274;BME280;45044;41.572;24.730;2023-02-21T13:07:19;91090.25;;;19.38;31.03
59274;BME280;45044;41.572;24.730;2023-02-21T13:12:37;91082.50;;;19.31;30.95
59274;BME280;45044;41.572;24.730;2023-02-21T13:15:19;91090.34;;;19.12;30.47
59274;BME280;45044;41.572;24.730;2023-02-21T13:18:05;91078.00;;;19.06;30.54
59274;BME280;45044;41.572;24.730;2023-02-21T13:20:39;91085.03;;;19.35;30.70
59274;BME280;45044;41.572;24.730;2023-02-21T13:23:47;91094.63;;;19.55;30.36
59274;BME280;45044;41.572;24.730;2023-02-21T13:29:02;91094.59;;;18.74;30.44
59274;BME280;45044;41.572;24.730;2023-02-21T13:31:41;91081.88;;;18.56;31.57
59274;BME280;45044;41.572;24.730;2023-02-21T13:34:09;91093.47;;;18.49;31.56
59274;BME280;45044;41.572;24.730;2023-02-21T13:36:45;91091.19;;;18.74;32.24
59274;BME280;45044;41.572;24.730;2023-02-21T13:39:16;91092.47;;;18.82;31.91
59274;BME280;45044;41.572;24.730;2023-02-21T13:41:49;91094.13;;;18.53;32.74
59274;BME280;45044;41.572;24.730;2023-02-21T13:44:41;91090.69;;;18.66;32.89
59274;BME280;45044;41.572;24.730;2023-02-21T13:47:15;91084.97;;;18.54;32.71
59274;BME280;45044;41.572;24.730;2023-02-21T13:57:42;91078.59;;;18.39;34.18
59274;BME280;45044;41.572;24.730;2023-02-21T14:08:26;91091.28;;;18.22;34.70
59274;BME280;45044;41.572;24.730;2023-02-21T14:10:58;91099.44;;;18.01;34.67
59274;BME280;45044;41.572;24.730;2023-02-21T14:13:37;91082.97;;;17.93;34.54
59274;BME280;45044;41.572;24.730;2023-02-21T14:21:15;91083.03;;;17.64;35.40
59274;BME280;45044;41.572;24.730;2023-02-21T14:23:49;91079.34;;;17.87;34.67
59274;BME280;45044;41.572;24.730;2023-02-21T14:26:49;91083.19;;;17.86;34.93
59274;BME280;45044;41.572;24.730;2023-02-21T14:29:42;91086.94;;;17.46;35.14
59274;BME280;45044;41.572;24.730;2023-02-21T14:37:27;91084.50;;;17.65;35.46
59274;BME280;45044;41.572;24.730;2023-02-21T14:56:11;91085.78;;;16.87;36.51
59274;BME280;45044;41.572;24.730;2023-02-21T15:01:50;91084.16;;;16.44;37.96
59274;BME280;45044;41.572;24.730;2023-02-21T15:07:39;91089.97;;;16.38;37.22
59274;BME280;45044;41.572;24.730;2023-02-21T15:10:25;91093.25;;;16.59;38.49
59274;BME280;45044;41.572;24.730;2023-02-21T15:12:59;91094.84;;;16.23;37.69
59274;BME280;45044;41.572;24.730;2023-02-21T15:15:34;91095.28;;;16.22;39.21
59274;BME280;45044;41.572;24.730;2023-02-21T15:18:06;91088.06;;;15.85;39.90
59274;BME280;45044;41.572;24.730;2023-02-21T15:20:36;91084.59;;;15.72;40.47
59274;BME280;45044;41.572;24.730;2023-02-21T15:23:20;91094.31;;;15.38;40.83
59274;BME280;45044;41.572;24.730;2023-02-21T15:25:57;91087.53;;;15.16;41.32
59274;BME280;45044;41.572;24.730;2023-02-21T15:28:27;91096.31;;;15.13;42.25
59274;BME280;45044;41.572;24.730;2023-02-21T15:31:00;91103.34;;;15.00;42.84
59274;BME280;45044;41.572;24.730;2023-02-21T15:33:39;91112.69;;;14.84;42.24
59274;BME280;45044;41.572;24.730;2023-02-21T15:36:19;91118.44;;;14.55;43.53
59274;BME280;45044;41.572;24.730;2023-02-21T15:38:55;91113.72;;;14.42;44.44
59274;BME280;45044;41.572;24.730;2023-02-21T15:44:14;91128.28;;;14.03;45.04
59274;BME280;45044;41.572;24.730;2023-02-21T15:46:50;91119.44;;;13.85;45.56
59274;BME280;45044;41.572;24.730;2023-02-21T15:49:23;91125.66;;;13.71;46.93
59274;BME280;45044;41.572;24.730;2023-02-21T15:51:50;91130.13;;;13.39;46.69
59274;BME280;45044;41.572;24.730;2023-02-21T15:56:44;91138.22;;;12.86;48.53